Latest Coastal Weather Observations for Warrnambool

IDV60701

Issued at 10:35 am EST Wednesday 24 September 2014 (issued every 10 minutes, with the page automatically refreshed every 10 minutes)

About coastal observations | Map of coastal stations | Coastal observations for VIC | Marine services | Other Formats
Station Details ID: 090186 Name: WARRNAMBOOL AIRPORT NDB Lat: -38.29 Lon: 142.45 Height: 70.8 m
Data from the previous 72 hours. | See also: Recent months at Warrnambool
Date/Time
EST
Temp

°C
Wind Pressure Rain
since 9am
mm
Weather Cloud Vis
km
Sea
Height
m
Swell
Dir
 
Speed
knots
Gust
knots
hPa Trend Height
m
Period
s
Dir
24/10:30am 16.2 NNE 7 8 1015.6 - 0.6 - - - - - - -
24/10:00am 15.4 NNE 6 7 1015.9 - 0.2 - - - - - - -
24/09:30am 15.5 E 0 0 1015.8 - 0.0 - - - - - - -
24/09:00am 15.1 NE 1 3 1015.9 - 0.2 Rain - - - - - -
24/08:30am 14.8 NNE 4 6 1015.6 - 0.0 - - - - - - -
24/08:00am 14.0 N 7 8 1015.9 - 0.0 - - - - - - -
24/07:30am 13.3 N 7 8 1015.9 - 0.0 - - - - - - -
24/07:00am 12.6 NNE 4 5 1015.8 - 0.0 - - - - - - -
24/06:30am 12.3 N 3 5 1016.1 - 0.0 - - - - - - -
24/06:00am 12.5 NW 4 4 1016.1 - 0.0 - - - - - - -
24/05:30am 12.0 N 5 6 1015.9 - 0.0 - - - - - - -
24/05:00am 12.8 N 6 7 1015.8 - 0.0 - - - - - - -
24/04:30am 13.1 NNE 6 7 1015.7 - 0.0 - - - - - - -
24/04:00am 13.5 N 6 8 1016.0 - 0.0 - - - - - - -
24/03:30am 14.1 NNW 8 12 1016.7 - 0.0 - - - - - - -
24/03:00am 13.5 NNE 9 11 1015.9 - 0.0 - - - - - - -
24/02:30am 13.1 NNE 8 10 1016.3 - 0.0 - - - - - - -
24/02:00am 13.4 NE 4 6 1016.8 - 0.0 - - - - - - -
24/01:30am 13.7 NW 5 7 1017.4 - 0.0 - - - - - - -
24/01:00am 13.5 N 5 6 1017.6 - 0.0 - - - - - - -
24/12:30am 13.9 NW 5 8 1018.0 - 0.0 - - - - - - -
24/12:00am 15.0 NNW 8 11 1018.1 - 0.0 - - - - - - -
 
Date/Time
EST
Temp

°C
Wind Pressure Rain
since 9am
mm
Weather Cloud Vis
km
Sea
Height
m
Swell
Dir
 
Speed
knots
Gust
knots
hPa Trend Height
m
Period
s
Dir
23/11:30pm 14.9 NNE 7 9 1018.0 - 0.0 - - - - - - -
23/11:00pm 14.7 NNE 8 10 1018.2 - 0.0 - - - - - - -
23/10:30pm 13.3 NE 7 10 1018.5 - 0.0 - - - - - - -
23/10:00pm 15.2 NE 8 11 1018.6 - 0.0 - - - - - - -
23/09:30pm 16.1 ENE 6 8 1018.7 - 0.0 - - - - - - -
23/09:00pm 16.9 ENE 6 8 1019.0 - 0.0 - - - - - - -
23/08:30pm 17.3 E 6 7 1019.3 - 0.0 - - - - - - -
23/08:00pm 18.1 E 5 7 1019.4 - 0.0 - - - - - - -
23/07:30pm 18.6 E 5 8 1019.7 - 0.0 - - - - - - -
23/07:00pm 19.0 E 3 4 1019.5 - 0.0 - - - - - - -
23/06:30pm 19.6 ESE 4 5 1019.5 - 0.0 - - - - - - -
23/06:00pm 21.1 ESE 4 4 1019.9 - 0.0 - - - - - - -
23/05:30pm 21.8 ENE 3 5 1020.0 - 0.0 - - - - - - -
23/05:00pm 23.0 ENE 5 8 1020.1 - 0.0 - - - - - - -
23/04:30pm 23.4 ENE 6 8 1020.2 - 0.0 - - - - - - -
23/04:00pm 22.4 NNE 5 8 1020.4 - 0.0 - - - - - - -
23/03:30pm 23.5 N 7 11 1020.6 - 0.0 - - - - - - -
23/03:00pm 24.0 N 7 8 1020.8 - 0.0 - - - - - - -
23/02:30pm 23.9 N 9 9 1021.3 - 0.0 - - - - - - -
23/02:00pm 23.9 N 10 15 1021.6 - 0.0 - - - - - - -
23/01:30pm 24.1 NNW 12 15 1021.8 - 0.0 - - - - - - -
23/01:00pm 24.1 N 10 15 1022.2 - 0.0 - - - - - - -
23/12:30pm 23.7 N 13 17 1022.7 - 0.0 - - - - - - -
23/12:00pm 23.8 N 10 13 1023.0 - 0.0 - - - - - - -
23/11:30am 23.1 N 10 14 1023.5 - 0.0 - - - - - - -
23/11:00am 22.0 N 10 13 1023.9 - 0.0 - - - - - - -
23/10:30am 21.1 N 10 13 1024.1 - 0.0 - - - - - - -
23/10:00am 19.5 N 11 14 1024.5 - 0.0 - - - - - - -
23/09:30am 17.7 N 12 16 1024.7 - 0.0 - - - - - - -
23/09:00am 16.4 NNE 11 13 1024.7 - 0.0 - - - - - - -
23/08:30am 14.4 NNE 11 14 1024.7 - 0.0 - - - - - - -
23/08:00am 13.1 NNE 10 14 1024.6 - 0.0 - - - - - - -
23/07:30am 11.4 NNE 10 11 1024.6 - 0.0 - - - - - - -
23/07:00am 9.9 N 9 11 1024.4 - 0.0 - - - - - - -
23/06:30am 8.8 N 9 11 1024.3 - 0.0 - - - - - - -
23/06:00am 8.6 NNE 10 11 1024.1 - 0.0 - - - - - - -
23/05:30am 8.3 NNE 10 12 1024.0 - 0.0 - - - - - - -
23/05:00am 8.2 NNE 10 13 1023.9 - 0.0 - - - - - - -
23/04:30am 7.9 NNE 9 10 1024.0 - 0.0 - - - - - - -
23/04:00am 8.0 NNE 9 10 1024.0 - 0.0 - - - - - - -
23/03:30am 8.2 NNE 10 12 1023.9 - 0.0 - - - - - - -
23/03:00am 8.6 NNE 11 13 1024.0 - 0.0 - - - - - - -
23/02:30am 9.0 N 10 14 1024.0 - 0.0 - - - - - - -
23/02:00am 8.9 N 10 13 1024.1 - 0.0 - - - - - - -
23/01:30am 9.3 N 11 15 1024.2 - 0.0 - - - - - - -
23/01:00am 8.8 N 11 14 1024.5 - 0.0 - - - - - - -
23/12:30am 8.8 N 10 12 1024.8 - 0.0 - - - - - - -
23/12:00am 9.1 N 9 11 1025.0 - 0.0 - - - - - - -
 
Date/Time
EST
Temp

°C
Wind Pressure Rain
since 9am
mm
Weather Cloud Vis
km
Sea
Height
m
Swell
Dir
 
Speed
knots
Gust
knots
hPa Trend Height
m
Period
s
Dir
22/11:30pm 8.1 N 9 10 1025.4 - 0.0 - - - - - - -
22/11:00pm 8.8 NNE 8 9 1025.5 - 0.0 - - - - - - -
22/10:30pm 8.3 NNE 8 9 1025.7 - 0.0 - - - - - - -
22/10:00pm 9.9 NE 5 7 1025.8 - 0.0 - - - - - - -
22/09:30pm 12.1 ENE 5 6 1026.1 - 0.0 - - - - - - -
22/09:00pm 12.2 E 6 7 1026.2 - 0.0 - - - - - - -
22/08:30pm 12.7 E 5 7 1026.1 - 0.0 - - - - - - -
22/08:00pm 11.1 ESE 5 6 1026.1 - 0.0 - - - - - - -
22/07:30pm 12.2 SE 4 5 1026.0 - 0.0 - - - - - - -
22/07:00pm 13.4 SSE 6 6 1025.6 - 0.0 - - - - - - -
22/06:30pm 17.8 ENE 3 5 1025.2 - 0.0 - - - - - - -
22/06:00pm 19.0 ENE 3 4 1025.1 - 0.0 - - - - - - -
22/05:30pm 19.8 ENE 4 5 1025.0 - 0.0 - - - - - - -
22/05:00pm 20.5 NE 4 6 1024.9 - 0.0 - - - - - - -
22/04:30pm 21.1 NE 4 7 1024.9 - 0.0 - - - - - - -
22/04:00pm 21.1 NNE 5 8 1024.9 - 0.0 - - - - - - -
22/03:30pm 21.1 N 7 11 1025.0 - 0.0 - - - - - - -
22/03:00pm 21.2 N 8 12 1025.2 - 0.0 - - - - - - -
22/02:30pm 20.7 N 10 14 1025.4 - 0.0 - - - - - - -
22/02:00pm 20.7 N 11 15 1025.7 - 0.0 - - - - - - -
22/01:30pm 20.8 N 9 12 1025.9 - 0.0 - - - - - - -
22/01:00pm 20.7 N 9 13 1026.4 - 0.0 - - - - - - -
22/12:30pm 20.3 N 9 13 1026.7 - 0.0 - - - - - - -
22/12:00pm 20.0 N 10 15 1027.2 - 0.0 - - - - - - -
22/11:30am 18.8 N 9 12 1027.6 - 0.0 - - - - - - -
22/11:00am 17.6 N 9 13 1027.8 - 0.0 - - - - - - -
22/10:30am 16.7 N 8 11 1028.1 - 0.0 - - - - - - -
22/10:00am 15.3 N 8 10 1028.3 - 0.0 - - - - - - -
22/09:30am 14.1 NNE 8 10 1028.4 - 0.0 - - - - - - -
22/09:00am 11.3 NNE 8 11 1028.5 - 0.0 - - - - - - -
22/08:30am 9.2 NNE 10 13 1028.5 - 0.0 - - - - - - -
22/08:00am 6.7 NNE 11 13 1028.5 - 0.0 - - - - - - -
22/07:30am 5.3 NNE 9 11 1028.4 - 0.0 - - - - - - -
22/07:00am 3.8 NNE 9 11 1028.3 - 0.0 - - - - - - -
22/06:30am 3.3 NNE 10 11 1028.3 - 0.0 - - - - - - -
22/06:00am 3.4 NNE 11 13 1028.0 - 0.0 - - - - - - -
22/05:30am 4.1 N 10 11 1027.8 - 0.0 - - - - - - -
22/05:00am 3.4 NNE 9 9 1027.6 - 0.0 - - - - - - -
22/04:30am 3.4 NNE 9 11 1027.6 - 0.0 - - - - - - -
22/04:00am 3.5 NNE 8 10 1027.6 - 0.0 - - - - - - -
22/03:30am 3.4 NNE 7 8 1027.7 - 0.0 - - - - - - -
22/03:00am 4.6 NNE 9 11 1027.8 - 0.0 - - - - - - -
22/02:30am 3.9 NNE 10 11 1028.1 - 0.0 - - - - - - -
22/02:00am 4.2 NNE 7 9 1028.4 - 0.0 - - - - - - -
22/01:30am 5.7 NE 9 11 1028.8 - 0.0 - - - - - - -
22/01:00am 5.9 NE 9 10 1028.9 - 0.0 - - - - - - -
22/12:30am 5.9 NE 8 9 1029.0 - 0.0 - - - - - - -
22/12:00am 5.6 NE 7 9 1029.1 - 0.0 - - - - - - -
 
Date/Time
EST
Temp

°C
Wind Pressure Rain
since 9am
mm
Weather Cloud Vis
km
Sea
Height
m
Swell
Dir
 
Speed
knots
Gust
knots
hPa Trend Height
m
Period
s
Dir
21/11:30pm 7.2 NE 8 9 1029.3 - 0.0 - - - - - - -
21/11:00pm 7.2 NE 7 8 1029.7 - 0.0 - - - - - - -
21/10:30pm 7.6 ENE 5 6 1029.8 - 0.0 - - - - - - -
21/10:00pm 7.4 E 5 6 1030.1 - 0.0 - - - - - - -
21/09:30pm 8.0 ESE 3 5 1030.1 - 0.0 - - - - - - -
21/09:00pm 7.7 ESE 4 5 1030.1 - 0.0 - - - - - - -
21/08:30pm 8.3 ESE 4 5 1030.1 - 0.0 - - - - - - -
21/08:00pm 8.7 ESE 4 7 1030.3 - 0.0 - - - - - - -
21/07:30pm 8.9 SE 5 7 1030.2 - 0.0 - - - - - - -
21/07:00pm 9.2 SE 8 11 1030.2 - 0.0 - - - - - - -
21/06:30pm 9.4 SE 7 8 1029.8 - 0.0 - - - - - - -
21/06:00pm 10.9 SSE 7 9 1029.6 - 0.0 - - - - - - -
21/05:30pm 12.1 SSE 9 11 1029.4 - 0.0 - - - - - - -
21/05:00pm 12.9 SSE 9 12 1029.3 - 0.0 - - - - - - -
21/04:30pm 13.3 SE 9 12 1029.4 - 0.0 - - - - - - -
21/04:00pm 13.6 SSE 9 13 1029.7 - 0.0 - - - - - - -
21/03:30pm 14.3 S 9 12 1029.9 - 0.0 - - - - - - -
21/03:00pm 14.6 SSW 8 11 1030.2 - 0.0 - - - - - - -
21/02:30pm 15.1 SE 5 7 1030.4 - 0.0 - - - - - - -
21/02:00pm 14.8 SE 1 6 1030.8 - 0.0 - - - - - - -
21/01:30pm 14.5 ENE 5 8 1031.0 - 0.0 - - - - - - -
21/01:00pm 13.6 SSE 6 9 1031.4 - 0.0 - - - - - - -
21/12:30pm 13.8 SSE 6 9 1031.9 - 0.0 - - - - - - -
21/12:00pm 13.8 ESE 5 8 1032.3 - 0.0 - - - - - - -
21/11:30am 13.6 SE 3 6 1032.7 - 0.0 - - - - - - -
21/11:00am 13.4 ESE 7 11 1032.9 - 0.0 - - - - - - -

Other Formats:

Comma delimited format used in spreadsheet applications
http://www.bom.gov.au/fwo/IDV60701/IDV60701.94837.axf

JavaScript Object Notation format (JSON) in row-major order
http://www.bom.gov.au/fwo/IDV60701/IDV60701.94837.json